LTAS

Zonguldak Airport

Zonguldak, Turkey
TAF LTAS 211340Z 2115/2124 VRB02KT 9999 SCT035 BKN180
Issued Valid From Valid To
Jun-21 @ 13:40 UTC
(4 hours ago)
Jun-21 @ 15:00 UTC
(3 hours ago)
Jun-22 @ 00:00 UTC
(in 6 hours)
Jun-21 @ 15:00 to Jun-22 @ 00:00
TAF LTAS 211340Z 2115/2124 VRB02KT 9999 SCT035 BKN180
Wind Visibility Clouds
Variable at 2 knots 10,000+ meters
  • Scattered at 3,500' AGL
  • Broken at 18,000' AGL
TAF LTAS 211340Z 2115/2124 VRB02KT 9999 SCT035 BKN180
Issued Jun-21 @ 13:40 UTC
(4 hours ago)
Valid From Jun-21 @ 15:00 UTC
(3 hours ago)
Valid To Jun-22 @ 00:00 UTC
(in 6 hours)
Jun-21 @ 15:00 - Jun-22 @ 00:00
Wind Visibility
Variable at 2 knots 10,000+ meters
Clouds
  • Scattered at 3,500' AGL
  • Broken at 18,000' AGL